createdAt,value
2017-12-15T00:01:42.335Z,27.80
2017-12-15T00:04:09.867Z,19.52
2017-12-15T00:06:37.451Z,21.08
2017-12-15T00:09:05.350Z,19.10
2017-12-15T00:11:33.693Z,17.85
2017-12-15T00:14:01.267Z,18.00
2017-12-15T00:16:28.860Z,17.90
2017-12-15T00:18:56.399Z,15.95
2017-12-15T00:21:24.266Z,14.23
2017-12-15T00:23:51.828Z,17.30
2017-12-15T00:26:19.611Z,12.52
2017-12-15T00:28:47.468Z,12.30
2017-12-15T00:31:15.158Z,13.38
2017-12-15T00:33:42.715Z,14.87
2017-12-15T00:36:10.283Z,14.18
2017-12-15T00:38:37.875Z,14.60
2017-12-15T00:41:05.421Z,15.65
2017-12-15T00:43:33.005Z,15.98
2017-12-15T00:46:00.654Z,15.43
2017-12-15T00:48:28.196Z,15.68
2017-12-15T00:50:55.730Z,15.88
2017-12-15T00:53:23.363Z,14.20
2017-12-15T00:55:51.149Z,21.80
2017-12-15T00:58:18.947Z,22.37
2017-12-15T01:00:46.563Z,15.25
2017-12-15T01:03:14.101Z,13.02
2017-12-15T01:05:41.643Z,14.30
2017-12-15T01:08:09.241Z,14.93
2017-12-15T01:10:36.788Z,17.92
2017-12-15T01:13:04.318Z,20.83
2017-12-15T01:15:31.889Z,16.73
2017-12-15T01:17:59.498Z,13.10
2017-12-15T01:20:27.091Z,14.63
2017-12-15T01:22:54.699Z,15.60
2017-12-15T01:25:22.259Z,15.30
2017-12-15T01:27:49.841Z,13.07
2017-12-15T01:30:17.416Z,10.55
2017-12-15T01:32:44.960Z,9.32
2017-12-15T01:35:12.498Z,8.65
2017-12-15T01:37:40.292Z,9.88
2017-12-15T01:40:07.840Z,11.25
2017-12-15T01:42:35.413Z,12.90
2017-12-15T01:45:03.038Z,11.25
2017-12-15T01:47:30.824Z,10.95
2017-12-15T01:49:58.361Z,10.85
2017-12-15T01:52:25.919Z,9.25
2017-12-15T01:54:53.435Z,8.40
2017-12-15T01:57:21.034Z,10.27
2017-12-15T01:59:48.670Z,9.52
2017-12-15T02:02:16.244Z,11.60
2017-12-15T02:04:43.811Z,11.38
2017-12-15T02:07:11.560Z,11.70
2017-12-15T02:09:39.157Z,12.40
2017-12-15T02:12:06.751Z,11.75
2017-12-15T02:14:34.610Z,13.57
2017-12-15T02:17:02.181Z,13.13
2017-12-15T02:19:29.732Z,11.40
2017-12-15T02:21:57.352Z,12.45
2017-12-15T02:24:25.008Z,12.05
2017-12-15T02:26:52.574Z,13.23
2017-12-15T02:29:20.338Z,13.00
2017-12-15T02:31:47.890Z,12.70
2017-12-15T02:34:15.783Z,13.65
2017-12-15T02:36:43.334Z,12.77
2017-12-15T02:39:10.906Z,14.63
2017-12-15T02:41:38.433Z,16.52
2017-12-15T02:44:05.958Z,18.40
2017-12-15T02:46:33.550Z,19.08
2017-12-15T02:49:01.084Z,23.42
2017-12-15T02:51:28.613Z,26.67
2017-12-15T02:53:56.175Z,26.25
2017-12-15T02:56:23.783Z,24.48
2017-12-15T02:58:51.383Z,20.30
2017-12-15T03:01:18.908Z,21.58
2017-12-15T03:03:46.507Z,21.83
2017-12-15T03:06:14.042Z,20.70
2017-12-15T03:08:41.677Z,22.48
2017-12-15T03:11:09.255Z,24.52
2017-12-15T03:13:37.016Z,23.08
2017-12-15T03:16:04.601Z,28.45
2017-12-15T03:18:32.145Z,23.90
2017-12-15T03:20:59.715Z,23.60
2017-12-15T03:23:27.254Z,23.92
2017-12-15T03:25:54.805Z,21.05
2017-12-15T03:28:22.372Z,22.33
2017-12-15T03:30:49.963Z,20.65
2017-12-15T03:33:17.536Z,21.48
2017-12-15T03:35:45.084Z,25.12
2017-12-15T03:38:12.674Z,24.75
2017-12-15T03:40:40.443Z,24.75
2017-12-15T03:43:07.988Z,22.50
2017-12-15T03:45:35.607Z,21.80
2017-12-15T03:48:03.132Z,22.55
2017-12-15T03:50:30.670Z,22.58
2017-12-15T03:52:58.235Z,21.60
2017-12-15T03:55:25.785Z,21.15
2017-12-15T03:57:53.320Z,19.10
2017-12-15T04:00:20.931Z,19.30
2017-12-15T04:02:48.510Z,18.48
2017-12-15T04:05:16.122Z,18.30
2017-12-15T04:07:43.701Z,20.20
2017-12-15T04:10:11.245Z,21.15
2017-12-15T04:12:38.798Z,20.80
2017-12-15T04:15:06.359Z,20.52
2017-12-15T04:17:34.119Z,19.02
2017-12-15T04:20:01.734Z,22.85
2017-12-15T04:22:29.345Z,22.70
2017-12-15T04:24:56.886Z,25.55
2017-12-15T04:27:24.495Z,27.85
2017-12-15T04:29:52.275Z,41.37
2017-12-15T04:32:19.918Z,41.88
2017-12-15T04:34:47.692Z,37.92
2017-12-15T04:37:15.264Z,34.63
2017-12-15T04:39:42.902Z,31.75
2017-12-15T04:42:10.456Z,32.08
2017-12-15T04:44:38.020Z,31.73
2017-12-15T04:47:05.852Z,34.75
2017-12-15T04:49:33.712Z,33.78
2017-12-15T04:52:01.484Z,33.33
2017-12-15T04:54:29.108Z,32.10
2017-12-15T04:56:56.909Z,35.42
2017-12-15T04:59:24.686Z,36.00
2017-12-15T05:01:52.313Z,38.17
2017-12-15T05:04:20.238Z,38.83
2017-12-15T05:06:47.814Z,34.00
2017-12-15T05:09:15.413Z,24.92
2017-12-15T05:11:43.252Z,27.42
2017-12-15T05:14:11.450Z,30.25
2017-12-15T05:16:39.179Z,23.48
2017-12-15T05:19:06.775Z,25.45
2017-12-15T05:21:35.194Z,26.45
2017-12-15T05:24:02.856Z,26.00
2017-12-15T05:26:31.268Z,26.02
2017-12-15T05:28:59.673Z,28.65
2017-12-15T05:31:27.273Z,23.67
2017-12-15T05:33:55.058Z,20.12
2017-12-15T05:36:23.476Z,24.37
2017-12-15T05:38:51.101Z,23.17
2017-12-15T05:41:18.633Z,19.85
2017-12-15T05:43:46.181Z,16.17
2017-12-15T05:46:13.823Z,24.00
2017-12-15T05:48:41.584Z,27.08
2017-12-15T05:51:09.350Z,25.15
2017-12-15T05:53:36.906Z,22.02
2017-12-15T05:56:04.753Z,23.75
2017-12-15T05:58:32.549Z,23.38
2017-12-15T06:01:00.920Z,23.77
2017-12-15T06:03:28.468Z,26.55
2017-12-15T06:05:56.272Z,25.20
2017-12-15T06:08:23.940Z,24.30
2017-12-15T06:10:51.695Z,23.92
2017-12-15T06:13:19.342Z,23.98
2017-12-15T06:15:46.921Z,22.10
2017-12-15T06:18:15.799Z,25.92
2017-12-15T06:20:43.628Z,30.05
2017-12-15T06:23:11.241Z,29.50
2017-12-15T06:25:38.783Z,28.52
2017-12-15T06:28:06.374Z,24.90
2017-12-15T06:30:33.963Z,21.33
2017-12-15T06:33:01.554Z,21.95
2017-12-15T06:35:29.139Z,19.33
2017-12-15T06:37:56.763Z,18.73
2017-12-15T06:40:24.389Z,19.50
2017-12-15T06:42:52.007Z,19.30
2017-12-15T06:45:19.664Z,18.60
2017-12-15T06:47:47.207Z,19.60
2017-12-15T06:50:14.806Z,20.02
2017-12-15T06:52:42.453Z,18.67
2017-12-15T06:55:10.043Z,17.70
2017-12-15T06:57:37.858Z,20.52
2017-12-15T07:00:06.026Z,29.20
2017-12-15T07:02:33.841Z,31.10
2017-12-15T07:05:01.481Z,33.17
2017-12-15T07:07:29.103Z,42.35
2017-12-15T07:09:56.874Z,42.75
2017-12-15T07:12:24.510Z,40.70
2017-12-15T07:14:52.344Z,41.07
2017-12-15T07:17:19.959Z,51.30
2017-12-15T07:19:47.733Z,50.00
2017-12-15T07:22:15.329Z,54.23
2017-12-15T07:24:42.872Z,59.00
2017-12-15T07:27:11.315Z,51.35
2017-12-15T07:29:38.898Z,53.43
2017-12-15T07:32:07.111Z,42.45
2017-12-15T07:34:34.885Z,53.17
2017-12-15T07:37:02.475Z,50.63
2017-12-15T07:39:30.117Z,49.30
2017-12-15T07:41:57.933Z,47.83
2017-12-15T07:44:25.552Z,44.65
2017-12-15T07:46:53.342Z,47.45
2017-12-15T07:49:20.964Z,47.28
2017-12-15T07:51:48.740Z,50.00
2017-12-15T07:54:16.372Z,49.80
2017-12-15T07:56:44.591Z,46.85
2017-12-15T07:59:12.161Z,57.90
2017-12-15T08:01:39.740Z,59.53
2017-12-15T08:04:07.519Z,52.43
2017-12-15T08:06:35.307Z,52.37
2017-12-15T08:09:02.875Z,52.33
2017-12-15T08:11:30.501Z,52.60
2017-12-15T08:13:58.319Z,51.07
2017-12-15T08:16:25.910Z,50.17
2017-12-15T08:18:53.525Z,45.80
2017-12-15T08:21:21.175Z,48.83
2017-12-15T08:23:48.751Z,49.67
2017-12-15T08:26:16.324Z,55.07
2017-12-15T08:28:43.976Z,60.50
2017-12-15T08:31:11.571Z,50.93
2017-12-15T08:33:39.163Z,48.17
2017-12-15T08:36:06.932Z,43.50
2017-12-15T08:38:34.636Z,42.87
2017-12-15T08:41:02.196Z,39.57
2017-12-15T08:43:30.005Z,35.80
2017-12-15T08:45:57.610Z,35.93
2017-12-15T08:48:26.164Z,36.40
2017-12-15T08:50:53.920Z,32.07
2017-12-15T08:53:21.512Z,32.90
2017-12-15T08:55:49.147Z,35.97
2017-12-15T08:58:17.623Z,36.20
2017-12-15T09:00:45.240Z,34.50
2017-12-15T09:03:12.930Z,37.27
2017-12-15T09:05:40.543Z,39.47
2017-12-15T09:08:08.174Z,47.90
2017-12-15T09:10:35.936Z,39.93
2017-12-15T09:13:03.535Z,47.47
2017-12-15T09:15:31.453Z,51.23
2017-12-15T09:17:59.237Z,49.67
2017-12-15T09:20:26.804Z,43.73
2017-12-15T09:22:54.892Z,41.70
2017-12-15T09:25:22.529Z,41.23
2017-12-15T09:27:50.288Z,41.50
2017-12-15T09:30:17.889Z,40.37
2017-12-15T09:32:45.675Z,39.40
2017-12-15T09:35:13.203Z,40.20
2017-12-15T09:37:40.895Z,42.73
2017-12-15T09:40:08.704Z,42.50
2017-12-15T09:42:36.292Z,40.63
2017-12-15T09:45:03.899Z,39.73
2017-12-15T09:47:31.464Z,38.13
2017-12-15T09:49:59.032Z,41.90
2017-12-15T09:52:26.806Z,39.97
2017-12-15T09:54:54.594Z,44.97
2017-12-15T09:57:22.252Z,43.97
2017-12-15T09:59:49.790Z,46.77
2017-12-15T10:02:17.456Z,42.30
2017-12-15T10:04:45.026Z,43.67
2017-12-15T10:07:12.602Z,42.67
2017-12-15T10:09:40.207Z,40.10
2017-12-15T10:12:07.835Z,40.30
2017-12-15T10:14:35.619Z,40.77
2017-12-15T10:17:03.577Z,43.07
2017-12-15T10:19:31.164Z,44.43
2017-12-15T10:21:58.966Z,42.30
2017-12-15T10:24:26.538Z,49.33
2017-12-15T10:26:54.362Z,52.07
2017-12-15T10:29:22.180Z,57.47
2017-12-15T10:31:49.791Z,60.77
2017-12-15T10:34:17.565Z,55.27
2017-12-15T10:36:45.453Z,52.87
2017-12-15T10:39:13.029Z,44.00
2017-12-15T10:41:40.639Z,39.13
2017-12-15T10:44:08.245Z,41.70
2017-12-15T10:46:36.604Z,36.90
2017-12-15T10:49:04.190Z,38.60
2017-12-15T10:51:31.778Z,40.30
2017-12-15T10:53:59.497Z,44.17
2017-12-15T10:56:27.340Z,46.67
2017-12-15T10:58:55.143Z,46.20
2017-12-15T11:01:22.734Z,50.83
2017-12-15T11:03:50.294Z,50.17
2017-12-15T11:06:18.067Z,48.80
2017-12-15T11:08:45.690Z,38.03
2017-12-15T11:11:13.446Z,45.70
2017-12-15T11:13:41.683Z,48.33
2017-12-15T11:16:09.501Z,44.37
2017-12-15T11:18:37.147Z,42.00
2017-12-15T11:21:04.737Z,40.00
2017-12-15T11:23:32.555Z,37.40
2017-12-15T11:26:00.102Z,40.70
2017-12-15T11:28:27.701Z,38.40
2017-12-15T11:30:55.338Z,40.37
2017-12-15T11:33:22.899Z,35.00
2017-12-15T11:35:50.487Z,34.13
2017-12-15T11:38:18.060Z,36.13
2017-12-15T11:40:45.666Z,37.57
2017-12-15T11:43:13.238Z,40.07
2017-12-15T11:45:40.862Z,41.20
2017-12-15T11:48:08.504Z,39.07
2017-12-15T11:50:36.522Z,36.73
2017-12-15T11:53:04.175Z,34.23
2017-12-15T11:55:31.924Z,32.77
2017-12-15T11:57:59.595Z,35.40
2017-12-15T12:00:27.266Z,29.47
2017-12-15T12:02:55.055Z,29.60
2017-12-15T12:05:22.630Z,28.93
2017-12-15T12:07:50.237Z,32.00
2017-12-15T12:10:17.789Z,32.90
2017-12-15T12:12:45.364Z,35.80
2017-12-15T12:15:13.012Z,36.87
2017-12-15T12:17:40.954Z,36.50
2017-12-15T12:20:09.191Z,38.40
2017-12-15T12:22:36.800Z,39.57
2017-12-15T12:25:04.673Z,40.47
2017-12-15T12:27:32.537Z,46.33
2017-12-15T12:30:00.103Z,49.37
2017-12-15T12:32:27.712Z,50.30
2017-12-15T12:34:55.498Z,41.80
2017-12-15T12:37:23.082Z,41.53
2017-12-15T12:39:50.668Z,38.73
2017-12-15T12:42:18.245Z,35.27
2017-12-15T12:44:45.784Z,33.77
2017-12-15T12:47:13.440Z,32.37
2017-12-15T12:49:40.995Z,29.67
2017-12-15T12:52:08.757Z,32.03
2017-12-15T12:54:36.372Z,31.03
2017-12-15T12:57:04.374Z,30.83
2017-12-15T12:59:32.006Z,30.43
2017-12-15T13:01:59.816Z,29.50
2017-12-15T13:04:27.384Z,30.50
2017-12-15T13:06:54.961Z,33.17
2017-12-15T13:09:22.605Z,32.17
2017-12-15T13:11:50.437Z,47.47
2017-12-15T13:14:18.234Z,46.03
2017-12-15T13:16:45.821Z,41.13
2017-12-15T13:19:13.464Z,36.97
2017-12-15T13:21:41.144Z,40.97
2017-12-15T13:24:08.932Z,38.60
2017-12-15T13:26:36.551Z,37.30
2017-12-15T13:29:04.106Z,40.23
2017-12-15T13:31:31.758Z,38.80
2017-12-15T13:33:59.351Z,36.07
2017-12-15T13:49:23.919Z,30.80
2017-12-15T13:51:51.693Z,27.80
2017-12-15T13:54:19.308Z,27.10
2017-12-15T13:56:48.414Z,24.10
2017-12-15T13:59:16.028Z,23.57
2017-12-15T14:01:43.774Z,23.93
2017-12-15T14:04:11.366Z,22.80
2017-12-15T14:06:39.132Z,24.60
2017-12-15T14:09:07.484Z,25.30
2017-12-15T14:11:35.055Z,27.33
2017-12-15T14:14:02.602Z,27.77
2017-12-15T14:16:30.171Z,28.20
2017-12-15T14:18:57.729Z,27.83
2017-12-15T14:21:25.259Z,25.00
2017-12-15T14:23:52.834Z,31.40
2017-12-15T14:26:21.234Z,28.83
2017-12-15T14:28:48.831Z,28.17
2017-12-15T14:31:16.524Z,30.67
2017-12-15T14:33:44.117Z,31.13
2017-12-15T14:36:11.752Z,28.53
2017-12-15T14:38:39.495Z,31.70
2017-12-15T14:41:07.155Z,30.83
2017-12-15T14:43:34.719Z,32.90
2017-12-15T14:46:02.415Z,37.57
2017-12-15T14:48:30.212Z,51.60
2017-12-15T14:50:57.893Z,39.73
2017-12-15T14:53:25.578Z,42.83
2017-12-15T14:55:53.165Z,42.23
2017-12-15T14:58:20.810Z,41.90
2017-12-15T15:00:48.426Z,42.60
2017-12-15T15:03:16.047Z,46.70
2017-12-15T15:05:43.598Z,44.40
2017-12-15T15:08:11.721Z,44.90
2017-12-15T15:10:39.313Z,46.70
2017-12-15T15:13:06.862Z,45.33
2017-12-15T15:15:34.523Z,45.13
2017-12-15T15:18:02.828Z,45.07
2017-12-15T15:20:30.493Z,42.90
2017-12-15T15:22:58.328Z,38.40
2017-12-15T15:25:25.953Z,38.07
2017-12-15T15:27:53.667Z,37.97
2017-12-15T15:30:22.270Z,46.07
2017-12-15T15:32:50.048Z,43.30
2017-12-15T15:35:17.647Z,42.03
2017-12-15T15:37:45.519Z,39.10
2017-12-15T15:40:13.325Z,38.90
2017-12-15T15:42:41.008Z,37.80
2017-12-15T15:45:08.639Z,40.60
2017-12-15T15:47:36.271Z,41.10
2017-12-15T15:50:03.881Z,47.40
2017-12-15T15:52:31.552Z,44.03
2017-12-15T15:54:59.950Z,42.87
2017-12-15T15:57:27.519Z,40.93
2017-12-15T15:59:55.377Z,43.40
2017-12-15T16:02:23.213Z,41.70
2017-12-15T16:04:51.053Z,42.80
2017-12-15T16:07:19.047Z,43.77
2017-12-15T16:09:46.701Z,45.40
2017-12-15T16:12:14.347Z,44.70
2017-12-15T16:14:41.980Z,43.83
2017-12-15T16:17:12.484Z,44.33
2017-12-15T16:19:40.833Z,44.73
2017-12-15T16:22:08.540Z,43.10
2017-12-15T16:24:36.367Z,44.67
2017-12-15T16:27:03.994Z,47.57
2017-12-15T16:29:32.115Z,52.60
2017-12-15T16:32:00.037Z,47.33
2017-12-15T16:34:27.884Z,50.50
2017-12-15T16:36:55.541Z,48.77
2017-12-15T16:39:23.171Z,50.17
2017-12-15T16:41:50.842Z,47.87
2017-12-15T16:44:18.804Z,45.57
2017-12-15T16:46:46.557Z,44.63
2017-12-15T16:49:14.427Z,43.20
2017-12-15T16:51:42.344Z,43.57
2017-12-15T16:54:10.290Z,51.27
2017-12-15T16:56:38.064Z,45.80
2017-12-15T16:59:05.835Z,43.67
2017-12-15T17:01:34.304Z,44.10
2017-12-15T17:04:02.187Z,46.60
2017-12-15T17:06:30.723Z,48.63
2017-12-15T17:08:58.709Z,39.53
2017-12-15T17:14:40.573Z,44.87
2017-12-15T17:17:08.233Z,45.13
2017-12-15T17:19:35.829Z,45.47
2017-12-15T17:22:03.572Z,46.47
2017-12-15T17:24:31.229Z,47.67
2017-12-15T17:26:58.957Z,50.77
2017-12-15T17:29:27.088Z,50.37
2017-12-15T17:31:54.758Z,52.80
2017-12-15T17:34:22.572Z,57.70
2017-12-15T17:36:50.280Z,59.90
2017-12-15T17:39:18.978Z,57.13
2017-12-15T17:41:47.378Z,61.67
2017-12-15T17:44:15.092Z,64.80
2017-12-15T17:46:43.842Z,56.63
2017-12-15T17:49:11.694Z,60.17
2017-12-15T17:51:39.644Z,60.20
2017-12-15T17:54:07.401Z,61.40
2017-12-15T17:56:35.130Z,63.47
2017-12-15T17:59:03.505Z,56.33
2017-12-15T18:01:31.191Z,59.23
2017-12-15T18:03:59.339Z,66.40
2017-12-15T18:06:27.177Z,54.50
2017-12-15T18:08:54.872Z,55.20
2017-12-15T18:11:25.316Z,57.33
2017-12-15T18:13:53.856Z,58.80
2017-12-15T18:16:21.454Z,54.17
2017-12-15T18:18:49.834Z,49.57
2017-12-15T18:21:18.565Z,50.67
2017-12-15T18:23:47.874Z,48.60
2017-12-15T18:26:15.513Z,51.87
2017-12-15T18:28:43.877Z,51.70
2017-12-15T18:31:11.513Z,53.70
2017-12-15T18:33:40.353Z,47.13
2017-12-15T18:36:08.885Z,48.57
2017-12-15T18:38:36.545Z,48.97
2017-12-15T18:41:04.176Z,49.70
2017-12-15T18:43:31.754Z,51.10
2017-12-15T18:46:20.204Z,59.13
2017-12-15T18:48:48.569Z,53.77
2017-12-15T18:51:17.037Z,49.53
2017-12-15T18:53:44.645Z,50.83
2017-12-15T18:56:14.921Z,52.47
2017-12-15T18:58:44.856Z,51.70
2017-12-15T19:01:16.278Z,54.57
2017-12-15T19:03:44.160Z,51.10
2017-12-15T19:06:11.996Z,52.07
2017-12-15T19:08:40.229Z,49.60
2017-12-15T19:11:07.958Z,47.37
2017-12-15T19:13:35.611Z,44.40
2017-12-15T19:16:04.044Z,44.23
2017-12-15T19:18:33.607Z,39.90
2017-12-15T19:21:01.886Z,38.20
2017-12-15T19:23:30.058Z,34.87
2017-12-15T19:25:57.644Z,34.80
2017-12-15T19:28:25.387Z,33.43
2017-12-15T19:30:53.053Z,39.80
2017-12-15T19:33:21.671Z,40.83
2017-12-15T19:35:50.370Z,42.13
2017-12-15T19:38:18.469Z,44.50
2017-12-15T19:40:46.061Z,43.87
2017-12-15T19:43:13.867Z,41.70
2017-12-15T19:45:41.522Z,37.83
2017-12-15T19:48:10.030Z,35.70
2017-12-15T19:50:38.027Z,39.23
2017-12-15T19:53:05.742Z,36.40
2017-12-15T19:55:33.358Z,32.90
2017-12-15T19:58:00.990Z,32.90
2017-12-15T20:00:29.496Z,35.63
2017-12-15T20:02:57.383Z,33.93
2017-12-15T20:05:25.900Z,44.73
2017-12-15T20:07:59.862Z,42.40
2017-12-15T20:10:30.603Z,36.83
2017-12-15T20:13:01.552Z,33.00
2017-12-15T20:15:30.087Z,34.60
2017-12-15T20:17:59.790Z,34.77
2017-12-15T20:20:30.383Z,32.33
2017-12-15T20:23:25.554Z,30.90
2017-12-15T20:25:53.593Z,36.13
2017-12-15T20:31:58.884Z,23.53
2017-12-15T20:34:33.274Z,29.53
2017-12-15T20:37:03.465Z,27.83
2017-12-15T20:39:32.828Z,26.10
2017-12-15T20:42:00.682Z,23.63
2017-12-15T20:44:32.121Z,24.20
2017-12-15T20:47:01.757Z,26.83
2017-12-15T20:49:29.769Z,25.37
2017-12-15T20:51:58.954Z,22.87
2017-12-15T20:54:28.241Z,25.97
2017-12-15T20:56:57.253Z,22.07
2017-12-15T20:59:25.334Z,17.37
2017-12-15T21:01:53.847Z,17.13
2017-12-15T21:04:23.280Z,13.20
2017-12-15T21:06:53.141Z,17.77
2017-12-15T21:09:21.770Z,18.33
2017-12-15T21:11:50.563Z,16.23
2017-12-15T21:14:18.603Z,13.77
2017-12-15T21:16:47.844Z,15.30
2017-12-15T21:19:15.444Z,15.70
2017-12-15T21:21:43.193Z,13.73
2017-12-15T21:24:10.792Z,14.20
2017-12-15T21:26:38.348Z,14.90
2017-12-15T21:29:06.137Z,14.70
2017-12-15T21:31:33.918Z,16.37
2017-12-15T21:36:55.317Z,14.97
2017-12-15T21:39:23.203Z,14.00
2017-12-15T21:41:50.966Z,12.20
2017-12-15T21:44:18.540Z,12.70
2017-12-15T21:46:46.206Z,12.20
2017-12-15T21:49:13.881Z,13.03
2017-12-15T21:51:41.587Z,16.03
2017-12-15T21:58:44.363Z,12.00
2017-12-15T22:01:12.230Z,8.30
2017-12-15T22:03:40.031Z,8.10
2017-12-15T22:06:07.915Z,10.13
2017-12-15T22:08:35.784Z,12.80
2017-12-15T22:11:03.376Z,14.70
2017-12-15T22:13:30.959Z,13.80
2017-12-15T22:15:59.717Z,12.70
2017-12-15T22:18:27.627Z,13.70
2017-12-15T22:20:55.524Z,9.70
2017-12-15T22:23:23.890Z,11.10
2017-12-15T22:25:51.520Z,11.87
2017-12-15T22:28:19.553Z,11.70
2017-12-15T22:30:47.171Z,4.60
2017-12-15T22:33:14.987Z,4.80
2017-12-15T22:35:42.532Z,11.53
2017-12-15T22:38:10.234Z,9.20
2017-12-15T22:40:37.990Z,11.00
2017-12-15T22:43:05.554Z,11.30
2017-12-15T22:45:33.146Z,9.57
2017-12-15T22:48:01.233Z,9.70
2017-12-15T22:50:29.214Z,9.90
2017-12-15T22:52:56.842Z,7.90
2017-12-15T22:55:24.437Z,7.10
2017-12-15T22:57:52.063Z,6.40
2017-12-15T23:00:19.698Z,5.50
2017-12-15T23:02:47.525Z,6.33
2017-12-15T23:05:16.241Z,4.37
2017-12-15T23:07:43.935Z,4.50
2017-12-15T23:10:11.703Z,5.57
2017-12-15T23:12:39.373Z,4.30
2017-12-15T23:15:06.951Z,4.70
2017-12-15T23:17:34.540Z,4.87
2017-12-15T23:20:02.266Z,7.47
2017-12-15T23:22:30.221Z,4.80
2017-12-15T23:24:58.115Z,3.17
2017-12-15T23:27:25.886Z,3.73
2017-12-15T23:29:53.593Z,4.90
2017-12-15T23:32:21.861Z,3.10
2017-12-15T23:34:49.467Z,3.80
2017-12-15T23:37:17.033Z,3.30
2017-12-15T23:39:44.909Z,3.27
2017-12-15T23:42:12.729Z,5.70
2017-12-15T23:44:40.292Z,4.23
2017-12-15T23:47:07.939Z,3.93
2017-12-15T23:49:35.638Z,3.50
2017-12-15T23:52:03.254Z,3.97
2017-12-15T23:54:42.732Z,4.27
2017-12-15T23:57:10.547Z,4.97
2017-12-15T23:59:40.102Z,4.60
